Liberty of The Seas — C6VQ8 — position and weather

sailwx.info

Track history (hours):
 
Tides and Currents Weather Stations Pressure Air Temp Water Temp Dewpoint Dewpoint Depression Visibility Wind Speed Wind Dir Waves Ship Positions

Liberty of The Seas

Last reported at 2014-Nov-26 00:33 UTC. Time now 2014-Nov-26 07:47 UTC.
Position N 20°32' W 086°58'.

Type: Passenger vessel. MMSI: 309436000.

Date/timePositionNaut miles runAvg speedWind from/ knotsBaromVisibWave heightAir tempDewpointWater temp
2014-Nov-26 00:33N 20°32' W 086°58'3 3.5
2014-Nov-25 23:33N 20°29' W 086°59'0 0.0
2014-Nov-25 22:21N 20°29' W 086°59'0 0.0
2014-Nov-25 21:27N 20°29' W 086°59'0 0.0
2014-Nov-25 20:33N 20°29' W 086°59'0 0.0
2014-Nov-25 18:15N 20°29' W 086°59'0 0.0
2014-Nov-25 17:30N 20°29' W 086°59'0 0.0
2014-Nov-25 16:30N 20°29' W 086°59'1 0.4
2014-Nov-25 13:33N 20°30' W 086°59'69 1.8
2014-Nov-24 00:00N 20°48' W 085°48'44519.7 130 / 201015.010.8 27.524.128.2
2014-Nov-23 01:22N 26°00' W 080°02'7 8.3
2014-Nov-23 00:33N 26°05' W 080°07'3 3.4
2014-Nov-22 23:33N 26°05' W 080°03'2 2.0
2014-Nov-22 22:33N 26°04' W 080°04'3 2.9
2014-Nov-22 21:31N 26°05' W 080°07'0 0.0
2014-Nov-22 20:31N 26°05' W 080°07'0 0.0
2014-Nov-22 19:31N 26°05' W 080°07'0 0.0
2014-Nov-22 18:31N 26°05' W 080°07'0 0.0
2014-Nov-22 17:31N 26°05' W 080°07'0 0.0
2014-Nov-22 16:31N 26°05' W 080°07'0 0.0
2014-Nov-22 15:22N 26°05' W 080°07'0 0.0
2014-Nov-22 14:25N 26°05' W 080°07'0 0.0
2014-Nov-22 13:25N 26°05' W 080°07'0 0.0
2014-Nov-22 12:28N 26°05' W 080°07'0 0.3
2014-Nov-22 11:33N 26°06' W 080°07'1110.8
2014-Nov-22 10:33N 25°58' W 079°58'20419.4
2014-Nov-22 00:00N 22°48' W 078°36'12621.0 070 / 261017.0 5.4 27.024.328.0
2014-Nov-21 18:00N 21°48' W 076°36'18610.4 090 / 151016.010.8 27.526.228.9
2014-Nov-21 00:00N 18°42' W 076°24'   130 / 121014.0 5.4 27.223.029.0
2014-Nov-17 22:33N 26°03' W 080°03'4 4.2
2014-Nov-17 21:30N 26°05' W 080°07'0 0.0
2014-Nov-17 20:30N 26°05' W 080°07'0 0.0
2014-Nov-17 19:30N 26°05' W 080°07'0 0.0
2014-Nov-17 18:33N 26°05' W 080°07'0 0.0
2014-Nov-17 17:33N 26°05' W 080°07'0 0.0
2014-Nov-17 16:33N 26°05' W 080°07'0 0.0
2014-Nov-17 15:33N 26°05' W 080°07'0 0.0
2014-Nov-17 14:33N 26°05' W 080°07'0 0.0
2014-Nov-17 13:33N 26°05' W 080°07'0 0.0
2014-Nov-17 12:24N 26°05' W 080°07'0 0.1
2014-Nov-17 11:33N 26°05' W 080°07'7 7.4
2014-Nov-17 10:33N 26°01' W 080°00'1414.3
2014-Nov-17 09:33N 25°48' W 079°54'  
Track history (hours):
 
Tides and Currents Weather Stations Pressure Air Temp Water Temp Dewpoint Dewpoint Depression Visibility Wind Speed Wind Dir Waves Ship Positions

Liberty of The Seas

Last reported at 2014-Nov-26 00:33 UTC. Time now 2014-Nov-26 07:47 UTC.
Position N 20°32' W 086°58'.

Type: Passenger vessel. MMSI: 309436000.

Date/timePositionNaut miles runAvg speedWind from/ knotsBaromVisibWave heightAir tempDewpointWater temp
2014-Nov-26 00:33N 20°32' W 086°58'3 3.5
2014-Nov-25 23:33N 20°29' W 086°59'0 0.0
2014-Nov-25 22:21N 20°29' W 086°59'0 0.0
2014-Nov-25 21:27N 20°29' W 086°59'0 0.0
2014-Nov-25 20:33N 20°29' W 086°59'0 0.0
2014-Nov-25 18:15N 20°29' W 086°59'0 0.0
2014-Nov-25 17:30N 20°29' W 086°59'0 0.0
2014-Nov-25 16:30N 20°29' W 086°59'1 0.4
2014-Nov-25 13:33N 20°30' W 086°59'69 1.8
2014-Nov-24 00:00N 20°48' W 085°48'44519.7 130 / 201015.010.8 27.524.128.2
2014-Nov-23 01:22N 26°00' W 080°02'7 8.3
2014-Nov-23 00:33N 26°05' W 080°07'3 3.4
2014-Nov-22 23:33N 26°05' W 080°03'2 2.0
2014-Nov-22 22:33N 26°04' W 080°04'3 2.9
2014-Nov-22 21:31N 26°05' W 080°07'0 0.0
2014-Nov-22 20:31N 26°05' W 080°07'0 0.0
2014-Nov-22 19:31N 26°05' W 080°07'0 0.0
2014-Nov-22 18:31N 26°05' W 080°07'0 0.0
2014-Nov-22 17:31N 26°05' W 080°07'0 0.0
2014-Nov-22 16:31N 26°05' W 080°07'0 0.0
2014-Nov-22 15:22N 26°05' W 080°07'0 0.0
2014-Nov-22 14:25N 26°05' W 080°07'0 0.0
2014-Nov-22 13:25N 26°05' W 080°07'0 0.0
2014-Nov-22 12:28N 26°05' W 080°07'0 0.3
2014-Nov-22 11:33N 26°06' W 080°07'1110.8
2014-Nov-22 10:33N 25°58' W 079°58'20419.4
2014-Nov-22 00:00N 22°48' W 078°36'12621.0 070 / 261017.0 5.4 27.024.328.0
2014-Nov-21 18:00N 21°48' W 076°36'18610.4 090 / 151016.010.8 27.526.228.9
2014-Nov-21 00:00N 18°42' W 076°24'   130 / 121014.0 5.4 27.223.029.0
2014-Nov-17 22:33N 26°03' W 080°03'4 4.2
2014-Nov-17 21:30N 26°05' W 080°07'0 0.0
2014-Nov-17 20:30N 26°05' W 080°07'0 0.0
2014-Nov-17 19:30N 26°05' W 080°07'0 0.0
2014-Nov-17 18:33N 26°05' W 080°07'0 0.0
2014-Nov-17 17:33N 26°05' W 080°07'0 0.0
2014-Nov-17 16:33N 26°05' W 080°07'0 0.0
2014-Nov-17 15:33N 26°05' W 080°07'0 0.0
2014-Nov-17 14:33N 26°05' W 080°07'0 0.0
2014-Nov-17 13:33N 26°05' W 080°07'0 0.0
2014-Nov-17 12:24N 26°05' W 080°07'0 0.1
2014-Nov-17 11:33N 26°05' W 080°07'7 7.4
2014-Nov-17 10:33N 26°01' W 080°00'1414.3
2014-Nov-17 09:33N 25°48' W 079°54'  

Dump ship's entire track history